createdAt,value
2023-05-07T00:00:11.293Z,63230.85
2023-05-07T00:01:13.537Z,63218.96
2023-05-07T00:02:15.370Z,63213.61
2023-05-07T00:03:17.507Z,63223.75
2023-05-07T00:04:19.821Z,63225.09
2023-05-07T00:05:21.857Z,63218.96
2023-05-07T00:06:23.885Z,63210.46
2023-05-07T00:07:25.925Z,63222.22
2023-05-07T00:08:27.772Z,63225.09
2023-05-07T00:09:29.744Z,63215.01
2023-05-07T00:10:31.793Z,63222.22
2023-05-07T00:11:35.067Z,63219.74
2023-05-07T00:12:38.496Z,63216.76
2023-05-07T00:13:40.431Z,63223.32
2023-05-07T00:14:42.293Z,63209.79
2023-05-07T00:15:44.125Z,63212.80
2023-05-07T00:16:46.124Z,63210.76
2023-05-07T00:17:48.108Z,63195.45
2023-05-07T00:18:50.503Z,63194.89
2023-05-07T00:19:52.319Z,63196.12
2023-05-07T00:20:54.284Z,63203.23
2023-05-07T00:21:56.117Z,63209.12
2023-05-07T00:22:57.975Z,63209.79
2023-05-07T00:23:59.804Z,63220.04
2023-05-07T00:25:01.650Z,63206.91
2023-05-07T00:26:04.441Z,63197.34
2023-05-07T00:27:06.309Z,63203.66
2023-05-07T00:28:08.145Z,63210.87
2023-05-07T00:29:10.002Z,63213.61
2023-05-07T00:30:13.253Z,63214.71
2023-05-07T00:31:15.342Z,63207.48
2023-05-07T00:32:17.630Z,63212.94
2023-05-07T00:33:19.887Z,63205.84
2023-05-07T00:34:21.716Z,63216.22
2023-05-07T00:35:23.730Z,63209.66
2023-05-07T00:36:25.718Z,63195.99
2023-05-07T00:37:27.561Z,63194.89
2023-05-07T00:38:29.415Z,63190.96
2023-05-07T00:39:31.257Z,63189.99
2023-05-07T00:40:33.398Z,63194.35
2023-05-07T00:41:35.321Z,63188.76
2023-05-07T00:42:37.150Z,63190.40
2023-05-07T00:43:39.066Z,63181.79
2023-05-07T00:44:41.029Z,63189.43
2023-05-07T00:45:43.532Z,63177.95
2023-05-07T00:46:45.788Z,63182.62
2023-05-07T00:47:47.853Z,63186.71
2023-05-07T00:48:51.099Z,63175.23
2023-05-07T00:49:53.257Z,63177.41
2023-05-07T00:50:55.323Z,63178.51
2023-05-07T00:51:57.163Z,63181.79
2023-05-07T00:53:00.411Z,63187.79
2023-05-07T00:54:03.523Z,63185.61
2023-05-07T00:55:07.507Z,63186.15
2023-05-07T00:56:10.723Z,63191.74
2023-05-07T00:57:12.603Z,63185.32
2023-05-07T00:58:14.872Z,63195.75
2023-05-07T00:59:16.731Z,63181.79
2023-05-07T01:00:19.212Z,63195.32
2023-05-07T01:01:22.774Z,63191.07
2023-05-07T01:02:25.428Z,63181.90
2023-05-07T01:03:27.265Z,63189.43
2023-05-07T01:04:29.784Z,63183.54
2023-05-07T01:05:32.794Z,63184.40
2023-05-07T01:06:35.458Z,63187.79
2023-05-07T01:07:40.223Z,63183.14
2023-05-07T01:08:43.291Z,63186.71
2023-05-07T01:09:45.259Z,63177.95
2023-05-07T01:10:47.400Z,63166.73
2023-05-07T01:11:50.544Z,63184.27
2023-05-07T01:12:54.185Z,63182.87
2023-05-07T01:13:58.801Z,63188.46
2023-05-07T01:15:02.223Z,63179.05
2023-05-07T01:16:05.650Z,63175.47
2023-05-07T01:17:07.998Z,63168.91
2023-05-07T01:18:10.961Z,63181.79
2023-05-07T01:19:14.657Z,63196.96
2023-05-07T01:20:18.931Z,63171.66
2023-05-07T01:21:26.870Z,63171.41
2023-05-07T01:22:33.388Z,63157.75
2023-05-07T01:23:36.937Z,63167.84
2023-05-07T01:24:38.842Z,63169.64
2023-05-07T01:25:40.923Z,63181.12
2023-05-07T01:26:44.940Z,63162.11
2023-05-07T01:27:46.835Z,63155.14
2023-05-07T01:28:48.691Z,63174.69
2023-05-07T01:29:50.523Z,63177.41
2023-05-07T01:32:06.538Z,63175.77
2023-05-07T01:33:11.274Z,63174.56
2023-05-07T01:34:15.801Z,63155.55
2023-05-07T01:35:21.388Z,63155.44
2023-05-07T01:36:24.768Z,63162.00
2023-05-07T01:37:27.292Z,63152.27
2023-05-07T01:38:30.465Z,63153.91
2023-05-07T01:39:33.378Z,63152.27
2023-05-07T01:40:35.679Z,63150.09
2023-05-07T01:41:38.039Z,63138.88
2023-05-07T01:42:41.903Z,63159.39
2023-05-07T01:43:45.032Z,63155.68
2023-05-07T01:44:46.901Z,63150.95
2023-05-07T01:45:50.128Z,63152.95
2023-05-07T01:46:52.104Z,63155.14
2023-05-07T01:47:55.439Z,63156.65
2023-05-07T01:48:57.560Z,63158.29
2023-05-07T01:50:00.283Z,63159.39
2023-05-07T01:51:02.658Z,63158.29
2023-05-07T01:52:04.905Z,63137.52
2023-05-07T01:53:06.998Z,63147.37
2023-05-07T01:54:08.880Z,63143.54
2023-05-07T01:55:10.844Z,63105.29
2023-05-07T01:56:12.781Z,63128.89
2023-05-07T01:57:14.601Z,63136.95
2023-05-07T01:58:16.547Z,63146.70
2023-05-07T01:59:18.410Z,63150.95
2023-05-07T02:00:21.208Z,63135.45
2023-05-07T02:01:23.133Z,63143.00
2023-05-07T02:02:25.289Z,63145.85
2023-05-07T02:03:27.331Z,63137.52
2023-05-07T02:04:29.284Z,63147.48
2023-05-07T02:05:31.154Z,63143.67
2023-05-07T02:06:33.100Z,63149.01
2023-05-07T02:07:34.976Z,63138.32
2023-05-07T02:08:36.848Z,63137.11
2023-05-07T02:09:38.803Z,63147.24
2023-05-07T02:10:43.066Z,63147.91
2023-05-07T02:11:45.235Z,63139.29
2023-05-07T02:12:47.311Z,63142.45
2023-05-07T02:13:49.265Z,63143.54
2023-05-07T02:14:51.079Z,63158.59
2023-05-07T02:15:53.339Z,63143.13
2023-05-07T02:16:55.567Z,63149.01
2023-05-07T02:18:06.750Z,63140.25
2023-05-07T02:19:08.776Z,63146.95
2023-05-07T02:20:12.304Z,63157.75
2023-05-07T02:21:14.515Z,63152.27
2023-05-07T02:22:16.379Z,63152.40
2023-05-07T02:23:18.835Z,63159.93
2023-05-07T02:24:20.821Z,63144.88
2023-05-07T02:25:22.972Z,63164.72
2023-05-07T02:26:25.141Z,63149.80
2023-05-07T02:27:27.115Z,63138.88
2023-05-07T02:28:29.016Z,63150.63
2023-05-07T02:29:31.035Z,63162.11
2023-05-07T02:30:32.994Z,63172.11
2023-05-07T02:31:34.951Z,63163.75
2023-05-07T02:32:36.985Z,63155.82
2023-05-07T02:33:38.888Z,63171.41
2023-05-07T02:34:40.729Z,63163.21
2023-05-07T02:35:42.560Z,63162.67
2023-05-07T02:36:44.923Z,63159.08
2023-05-07T02:37:46.792Z,63164.61
2023-05-07T02:38:48.648Z,63163.46
2023-05-07T02:39:50.533Z,63167.03
2023-05-07T02:40:52.515Z,63164.29
2023-05-07T02:41:54.980Z,63157.19
2023-05-07T02:42:56.856Z,63146.52
2023-05-07T02:43:58.699Z,63144.77
2023-05-07T02:45:00.598Z,63156.11
2023-05-07T02:46:05.442Z,63158.16
2023-05-07T02:47:07.501Z,63155.98
2023-05-07T02:48:09.546Z,63157.32
2023-05-07T02:49:11.646Z,63160.47
2023-05-07T02:50:14.185Z,63165.93
2023-05-07T02:51:19.962Z,63163.75
2023-05-07T02:52:23.451Z,63162.00
2023-05-07T02:53:26.537Z,63158.29
2023-05-07T02:54:28.420Z,63165.39
2023-05-07T02:55:31.350Z,63171.57
2023-05-07T02:56:34.356Z,63166.49
2023-05-07T02:57:36.213Z,63166.06
2023-05-07T02:58:38.058Z,63169.48
2023-05-07T02:59:39.918Z,63169.77
2023-05-07T03:00:42.448Z,63166.49
2023-05-07T03:01:44.371Z,63166.49
2023-05-07T03:02:46.417Z,63169.21
2023-05-07T03:03:48.504Z,63164.85
2023-05-07T03:04:50.463Z,63169.34
2023-05-07T03:05:52.372Z,63169.77
2023-05-07T03:06:54.449Z,63167.03
2023-05-07T03:07:56.279Z,63168.67
2023-05-07T03:08:58.174Z,63168.67
2023-05-07T03:10:01.154Z,63161.68
2023-05-07T03:11:03.539Z,63157.08
2023-05-07T03:12:06.431Z,63161.03
2023-05-07T03:13:08.352Z,63165.39
2023-05-07T03:14:10.372Z,63165.39
2023-05-07T03:15:12.221Z,63166.49
2023-05-07T03:16:14.819Z,63178.94
2023-05-07T03:17:16.783Z,63170.31
2023-05-07T03:18:18.780Z,63171.70
2023-05-07T03:19:20.828Z,63169.77
2023-05-07T03:20:23.033Z,63161.44
2023-05-07T03:21:24.977Z,63151.19
2023-05-07T03:22:26.984Z,63157.32
2023-05-07T03:23:28.933Z,63156.22
2023-05-07T03:24:31.312Z,63154.47
2023-05-07T03:25:33.172Z,63148.34
2023-05-07T03:26:35.170Z,63154.47
2023-05-07T03:27:37.927Z,63149.01
2023-05-07T03:28:39.872Z,63151.19
2023-05-07T03:29:41.712Z,63157.75
2023-05-07T03:30:43.864Z,63156.22
2023-05-07T03:31:45.993Z,63158.83
2023-05-07T03:32:48.989Z,63154.59
2023-05-07T03:33:56.568Z,63150.77
2023-05-07T03:34:58.501Z,63166.06
2023-05-07T03:36:00.372Z,63168.24
2023-05-07T03:37:02.224Z,63169.88
2023-05-07T03:38:04.415Z,63174.26
2023-05-07T03:39:06.282Z,63180.15
2023-05-07T03:40:10.110Z,63164.85
2023-05-07T03:41:12.902Z,63172.08
2023-05-07T03:42:15.846Z,63177.30
2023-05-07T03:43:18.686Z,63176.06
2023-05-07T03:44:20.647Z,63160.22
2023-05-07T03:45:22.469Z,63165.52
2023-05-07T03:46:24.431Z,63164.13
2023-05-07T03:47:26.722Z,63174.51
2023-05-07T03:48:28.692Z,63173.05
2023-05-07T03:49:30.548Z,63167.16
2023-05-07T03:50:32.590Z,63173.59
2023-05-07T03:51:34.429Z,63169.34
2023-05-07T03:52:36.281Z,63173.72
2023-05-07T03:53:38.114Z,63187.68
2023-05-07T03:54:40.735Z,63177.41
2023-05-07T03:55:42.613Z,63173.46
2023-05-07T03:56:44.561Z,63154.72
2023-05-07T03:57:46.396Z,63154.72
2023-05-07T03:58:48.223Z,63162.11
2023-05-07T03:59:50.106Z,63158.54
2023-05-07T04:00:52.656Z,63152.27
2023-05-07T04:01:54.551Z,63155.55
2023-05-07T04:02:56.565Z,63169.77
2023-05-07T04:03:58.846Z,63176.33
2023-05-07T04:05:01.410Z,63168.80
2023-05-07T04:06:07.025Z,63167.70
2023-05-07T04:07:08.935Z,63167.57
2023-05-07T04:08:10.820Z,63146.81
2023-05-07T04:09:12.777Z,63156.11
2023-05-07T04:10:14.865Z,63148.45
2023-05-07T04:11:16.675Z,63155.14
2023-05-07T04:12:18.507Z,63165.93
2023-05-07T04:13:20.382Z,63151.87
2023-05-07T04:14:22.205Z,63165.39
2023-05-07T04:15:24.690Z,63170.85
2023-05-07T04:16:26.688Z,63173.59
2023-05-07T04:17:28.652Z,63163.21
2023-05-07T04:18:30.706Z,63165.28
2023-05-07T04:19:34.041Z,63166.49
2023-05-07T04:20:36.021Z,63164.96
2023-05-07T04:21:37.969Z,63163.21
2023-05-07T04:22:39.920Z,63171.95
2023-05-07T04:23:41.784Z,63170.85
2023-05-07T04:24:43.653Z,63167.16
2023-05-07T04:25:45.962Z,63172.08
2023-05-07T04:26:47.907Z,63176.87
2023-05-07T04:27:49.770Z,63176.44
2023-05-07T04:28:51.711Z,63164.29
2023-05-07T04:29:53.650Z,63163.88
2023-05-07T04:30:55.837Z,63166.49
2023-05-07T04:31:57.764Z,63166.90
2023-05-07T04:32:59.775Z,63170.44
2023-05-07T04:34:01.819Z,63158.83
2023-05-07T04:35:04.798Z,63156.22
2023-05-07T04:36:08.011Z,63160.36
2023-05-07T04:37:09.872Z,63155.55
2023-05-07T04:38:12.062Z,63164.29
2023-05-07T04:39:13.875Z,63161.03
2023-05-07T04:40:16.279Z,63155.14
2023-05-07T04:41:18.226Z,63170.06
2023-05-07T04:42:20.076Z,63168.96
2023-05-07T04:43:21.924Z,63169.77
2023-05-07T04:44:23.757Z,63167.57
2023-05-07T04:45:25.619Z,63164.55
2023-05-07T04:46:27.638Z,63169.34
2023-05-07T04:47:29.672Z,63177.41
2023-05-07T04:48:31.541Z,63163.88
2023-05-07T04:49:33.391Z,63164.96
2023-05-07T04:50:35.371Z,63161.82
2023-05-07T04:51:37.235Z,63165.93
2023-05-07T04:52:39.213Z,63167.57
2023-05-07T04:53:41.065Z,63177.95
2023-05-07T04:54:42.980Z,63170.02
2023-05-07T04:55:45.493Z,63172.20
2023-05-07T04:56:47.415Z,63182.33
2023-05-07T04:57:49.276Z,63184.51
2023-05-07T04:58:51.115Z,63184.51
2023-05-07T04:59:53.720Z,63194.64
2023-05-07T05:00:55.696Z,63173.16
2023-05-07T05:01:57.565Z,63188.89
2023-05-07T05:02:59.585Z,63186.04
2023-05-07T05:04:01.856Z,63189.43
2023-05-07T05:05:04.810Z,63190.64
2023-05-07T05:06:07.121Z,63196.83
2023-05-07T05:07:08.968Z,63204.20
2023-05-07T05:08:10.868Z,63192.96
2023-05-07T05:09:12.852Z,63199.27
2023-05-07T05:10:14.857Z,63195.45
2023-05-07T05:11:16.702Z,63212.94
2023-05-07T05:12:18.547Z,63208.02
2023-05-07T05:13:20.513Z,63220.04
2023-05-07T05:14:22.757Z,63226.60
2023-05-07T05:15:24.613Z,63220.71
2023-05-07T05:16:26.820Z,63228.79
2023-05-07T05:17:28.902Z,63220.58
2023-05-07T05:18:30.837Z,63228.24
2023-05-07T05:19:32.722Z,63221.68
2023-05-07T05:20:34.676Z,63225.93
2023-05-07T05:21:36.537Z,63212.10
2023-05-07T05:22:39.172Z,63224.53
2023-05-07T05:23:41.048Z,63235.89
2023-05-07T05:24:42.887Z,63233.17
2023-05-07T05:25:44.728Z,63228.79
2023-05-07T05:26:46.790Z,63227.14
2023-05-07T05:27:48.663Z,63241.48
2023-05-07T05:28:50.540Z,63250.79
2023-05-07T05:29:52.421Z,63255.04
2023-05-07T05:30:54.383Z,63256.79
2023-05-07T05:31:56.284Z,63258.97
2023-05-07T05:32:58.312Z,63275.14
2023-05-07T05:34:00.195Z,63263.49
2023-05-07T05:35:02.773Z,63273.21
2023-05-07T05:36:06.176Z,63279.77
2023-05-07T05:37:08.044Z,63271.02
2023-05-07T05:38:10.218Z,63278.13
2023-05-07T05:39:12.193Z,63285.11
2023-05-07T05:40:14.130Z,63281.52
2023-05-07T05:41:15.993Z,63292.10
2023-05-07T05:42:17.952Z,63284.81
2023-05-07T05:43:20.513Z,63293.86
2023-05-07T05:44:22.449Z,63299.88
2023-05-07T05:45:25.063Z,63315.20
2023-05-07T05:46:27.155Z,63310.95
2023-05-07T05:47:29.859Z,63315.31
2023-05-07T05:48:31.899Z,63318.48
2023-05-07T05:49:33.887Z,63327.91
2023-05-07T05:50:36.628Z,63328.99
2023-05-07T05:51:38.495Z,63337.63
2023-05-07T05:52:40.367Z,63342.13
2023-05-07T05:53:42.218Z,63345.41
2023-05-07T05:54:44.088Z,63362.68
2023-05-07T05:55:45.943Z,63370.36
2023-05-07T05:56:48.964Z,63374.29
2023-05-07T05:57:50.831Z,63383.74
2023-05-07T05:58:52.707Z,63396.19
2023-05-07T05:59:54.748Z,63396.19
2023-05-07T06:00:56.807Z,63402.25
2023-05-07T06:01:58.694Z,63418.12
2023-05-07T06:03:02.662Z,63407.84
2023-05-07T06:04:04.776Z,63407.84
2023-05-07T06:05:07.947Z,63407.29
2023-05-07T06:06:10.180Z,63415.07
2023-05-07T06:07:12.242Z,63419.46
2023-05-07T06:08:14.196Z,63407.84
2023-05-07T06:09:16.492Z,63412.11
2023-05-07T06:10:18.457Z,63407.29
2023-05-07T06:11:20.286Z,63413.99
2023-05-07T06:12:22.177Z,63426.88
2023-05-07T06:13:24.289Z,63427.44
2023-05-07T06:14:26.350Z,63435.64
2023-05-07T06:15:28.323Z,63427.44
2023-05-07T06:16:30.336Z,63429.09
2023-05-07T06:17:32.271Z,63419.89
2023-05-07T06:18:34.168Z,63422.51
2023-05-07T06:19:36.099Z,63422.08
2023-05-07T06:20:38.177Z,63421.10
2023-05-07T06:21:40.045Z,63430.30
2023-05-07T06:22:41.939Z,63427.12
2023-05-07T06:23:43.826Z,63425.36
2023-05-07T06:24:45.652Z,63423.96
2023-05-07T06:25:50.811Z,63438.08
2023-05-07T06:26:52.925Z,63433.69
2023-05-07T06:27:54.757Z,63438.08
2023-05-07T06:28:56.620Z,63450.43
2023-05-07T06:29:58.470Z,63439.72
2023-05-07T06:31:12.697Z,63433.02
2023-05-07T06:32:15.003Z,63423.29
2023-05-07T06:33:16.946Z,63436.98
2023-05-07T06:34:18.816Z,63445.07
2023-05-07T06:35:20.924Z,63456.04
2023-05-07T06:36:22.948Z,63448.79
2023-05-07T06:37:25.964Z,63454.82
2023-05-07T06:38:27.814Z,63449.59
2023-05-07T06:39:30.621Z,63456.47
2023-05-07T06:40:32.587Z,63458.65
2023-05-07T06:41:34.409Z,63456.58
2023-05-07T06:42:36.923Z,63464.93
2023-05-07T06:43:38.769Z,63475.64
2023-05-07T06:44:40.634Z,63484.64
2023-05-07T06:45:42.504Z,63484.64
2023-05-07T06:46:44.602Z,63497.67
2023-05-07T06:47:46.711Z,63492.62
2023-05-07T06:48:48.748Z,63489.57
2023-05-07T06:49:50.918Z,63487.13
2023-05-07T06:50:52.956Z,63488.23
2023-05-07T06:51:54.768Z,63497.67
2023-05-07T06:52:56.604Z,63491.76
2023-05-07T06:53:58.501Z,63499.20
2023-05-07T06:55:00.498Z,63502.17
2023-05-07T06:56:02.461Z,63504.91
2023-05-07T06:57:04.376Z,63507.54
2023-05-07T06:58:06.338Z,63527.15
2023-05-07T06:59:08.288Z,63518.49
2023-05-07T07:00:11.762Z,63530.67
2023-05-07T07:01:14.090Z,63532.86
2023-05-07T07:02:18.160Z,63532.09
2023-05-07T07:03:20.174Z,63539.31
2023-05-07T07:04:22.022Z,63548.41
2023-05-07T07:05:23.877Z,63538.90
2023-05-07T07:06:26.060Z,63532.75
2023-05-07T07:07:27.922Z,63534.27
2023-05-07T07:08:29.766Z,63539.21
2023-05-07T07:09:31.720Z,63515.63
2023-05-07T07:10:33.700Z,63526.61
2023-05-07T07:11:36.098Z,63529.46
2023-05-07T07:12:38.047Z,63543.04
2023-05-07T07:13:39.980Z,63537.69
2023-05-07T07:14:41.880Z,63546.33
2023-05-07T07:15:44.125Z,63541.09
2023-05-07T07:16:46.280Z,63553.58
2023-05-07T07:17:48.708Z,63546.80
2023-05-07T07:18:52.196Z,63541.09
2023-05-07T07:19:54.073Z,63540.42
2023-05-07T07:20:56.138Z,63547.43
2023-05-07T07:21:59.179Z,63534.94
2023-05-07T07:23:01.057Z,63523.79
2023-05-07T07:24:03.492Z,63543.04
2023-05-07T07:25:05.965Z,63542.50
2023-05-07T07:26:07.933Z,63542.60
2023-05-07T07:27:09.814Z,63543.04
2023-05-07T07:28:11.729Z,63545.89
2023-05-07T07:29:14.009Z,63558.93
2023-05-07T07:30:16.300Z,63545.23
2023-05-07T07:31:18.292Z,63554.25
2023-05-07T07:32:20.322Z,63554.25
2023-05-07T07:33:22.176Z,63565.64
2023-05-07T07:34:24.032Z,63557.54
2023-05-07T07:35:25.945Z,63558.21
2023-05-07T07:36:42.538Z,63571.55
2023-05-07T07:37:31.826Z,63557.85
2023-05-07T07:38:34.781Z,63567.52
2023-05-07T07:39:36.621Z,63560.83
2023-05-07T07:40:39.282Z,63561.14
2023-05-07T07:41:41.191Z,63569.47
2023-05-07T07:42:43.183Z,63569.37
2023-05-07T07:43:45.371Z,63577.70
2023-05-07T07:44:47.335Z,63583.85
2023-05-07T07:45:49.187Z,63585.37
2023-05-07T07:46:51.525Z,63577.27
2023-05-07T07:47:53.692Z,63579.89
2023-05-07T07:48:56.941Z,63594.81
2023-05-07T07:49:59.302Z,63606.25
2023-05-07T07:51:01.288Z,63602.96
2023-05-07T07:52:05.854Z,63616.77
2023-05-07T07:53:10.057Z,63610.19
2023-05-07T07:54:12.230Z,63601.41
2023-05-07T07:55:14.535Z,63602.52
2023-05-07T07:56:16.524Z,63618.86
2023-05-07T07:57:18.654Z,63614.35
2023-05-07T07:58:20.558Z,63604.83
2023-05-07T07:59:22.595Z,63612.81
2023-05-07T08:00:24.808Z,63609.11
2023-05-07T08:01:27.196Z,63628.17
2023-05-07T08:02:30.280Z,63623.36
2023-05-07T08:03:32.620Z,63624.88
2023-05-07T08:04:34.965Z,63633.99
2023-05-07T08:05:36.980Z,63610.62
2023-05-07T08:06:39.081Z,63613.92
2023-05-07T08:07:41.165Z,63616.00
2023-05-07T08:08:44.886Z,63630.26
2023-05-07T08:09:46.971Z,63629.71
2023-05-07T08:10:49.133Z,63627.09
2023-05-07T08:11:51.215Z,63637.07
2023-05-07T08:12:54.501Z,63637.07
2023-05-07T08:13:57.108Z,63644.64
2023-05-07T08:14:58.996Z,63651.23
2023-05-07T08:16:01.003Z,63656.71
2023-05-07T08:17:03.054Z,63662.20
2023-05-07T08:18:05.089Z,63662.75
2023-05-07T08:19:07.375Z,63670.30
2023-05-07T08:20:10.422Z,63661.78
2023-05-07T08:21:13.109Z,63661.78
2023-05-07T08:22:17.962Z,63652.21
2023-05-07T08:23:19.997Z,63639.70
2023-05-07T08:24:23.013Z,63626.11
2023-05-07T08:25:25.938Z,63637.74
2023-05-07T08:26:28.157Z,63642.55
2023-05-07T08:27:30.162Z,63638.05
2023-05-07T08:28:32.642Z,63635.86
2023-05-07T08:29:34.609Z,63637.07
2023-05-07T08:30:36.950Z,63645.31
2023-05-07T08:31:38.949Z,63639.82
2023-05-07T08:32:40.873Z,63633.24
2023-05-07T08:33:42.850Z,63640.01
2023-05-07T08:34:44.706Z,63635.43
2023-05-07T08:35:46.571Z,63634.22
2023-05-07T08:36:48.564Z,63644.20
2023-05-07T08:37:50.455Z,63655.06
2023-05-07T08:38:53.359Z,63652.21
2023-05-07T08:39:55.232Z,63652.87
2023-05-07T08:40:57.579Z,63655.61
2023-05-07T08:42:01.041Z,63668.11
2023-05-07T08:43:05.403Z,63663.61
2023-05-07T08:44:11.115Z,63660.13
2023-05-07T08:45:15.592Z,63652.31
2023-05-07T08:46:19.862Z,63659.02
2023-05-07T08:47:26.525Z,63666.15
2023-05-07T08:48:31.753Z,63674.93
2023-05-07T08:49:34.428Z,63666.70
2023-05-07T08:50:37.155Z,63684.59
2023-05-07T08:51:39.288Z,63679.21
2023-05-07T08:52:41.833Z,63685.67
2023-05-07T08:53:44.681Z,63694.14
2023-05-07T08:54:46.782Z,63696.22
2023-05-07T08:55:49.239Z,63689.53
2023-05-07T08:56:51.704Z,63681.52
2023-05-07T08:57:54.011Z,63661.78
2023-05-07T08:58:55.968Z,63683.92
2023-05-07T08:59:57.967Z,63674.39
2023-05-07T09:01:04.020Z,63668.34
2023-05-07T09:02:09.971Z,63675.37
2023-05-07T09:03:13.181Z,63659.02
2023-05-07T09:04:16.105Z,63684.59
2023-05-07T09:05:18.392Z,63672.07
2023-05-07T09:06:20.772Z,63679.10
2023-05-07T09:07:22.963Z,63669.89
2023-05-07T09:08:27.013Z,63673.85
2023-05-07T09:09:29.007Z,63679.33
2023-05-07T09:10:33.984Z,63690.86
2023-05-07T09:11:35.997Z,63689.86
2023-05-07T09:12:37.876Z,63703.48
2023-05-07T09:13:39.915Z,63719.52
2023-05-07T09:14:41.864Z,63713.36
2023-05-07T09:15:44.017Z,63715.99
2023-05-07T09:16:47.813Z,63699.52
2023-05-07T09:17:49.999Z,63700.73
2023-05-07T09:18:54.017Z,63696.22
2023-05-07T09:19:56.149Z,63676.48
2023-05-07T09:20:58.110Z,63667.26
2023-05-07T09:22:04.630Z,63683.48
2023-05-07T09:23:08.184Z,63676.89
2023-05-07T09:24:10.145Z,63690.86
2023-05-07T09:25:12.593Z,63701.04
2023-05-07T09:26:14.957Z,63705.44
2023-05-07T09:27:18.425Z,63685.25
2023-05-07T09:28:20.451Z,63687.57
2023-05-07T09:29:22.495Z,63696.45
2023-05-07T09:30:29.645Z,63706.77
2023-05-07T09:31:31.677Z,63711.72
2023-05-07T09:32:37.448Z,63711.16
2023-05-07T09:33:41.006Z,63710.07
2023-05-07T09:34:43.172Z,63698.00
2023-05-07T09:35:45.046Z,63699.96
2023-05-07T09:36:47.546Z,63691.95
2023-05-07T09:37:49.600Z,63702.60
2023-05-07T09:38:52.466Z,63701.61
2023-05-07T09:39:55.601Z,63699.33
2023-05-07T09:41:09.589Z,63728.18
2023-05-07T09:42:12.795Z,63720.94
2023-05-07T09:43:14.852Z,63723.79
2023-05-07T09:44:17.736Z,63734.00
2023-05-07T09:45:25.399Z,63734.66
2023-05-07T09:46:31.307Z,63742.22
2023-05-07T09:47:36.955Z,63719.29
2023-05-07T09:48:41.054Z,63712.26
2023-05-07T09:49:46.687Z,63730.26
2023-05-07T09:50:51.577Z,63719.71
2023-05-07T09:51:53.666Z,63710.49
2023-05-07T09:52:57.135Z,63717.20
2023-05-07T09:53:59.728Z,63723.79
2023-05-07T09:55:03.039Z,63723.90
2023-05-07T09:56:05.618Z,63730.80
2023-05-07T09:57:09.574Z,63739.71
2023-05-07T09:58:13.217Z,63755.09
2023-05-07T09:59:17.025Z,63751.67
2023-05-07T10:00:21.006Z,63751.67
2023-05-07T10:01:25.480Z,63757.49
2023-05-07T10:02:31.151Z,63740.82
2023-05-07T10:03:35.758Z,63714.89
2023-05-07T10:04:38.446Z,63718.18
2023-05-07T10:05:40.910Z,63718.18
2023-05-07T10:06:43.822Z,63720.50
2023-05-07T10:07:47.266Z,63721.48
2023-05-07T10:08:50.788Z,63717.75
2023-05-07T10:09:53.986Z,63693.05
2023-05-07T10:10:55.984Z,63705.13
2023-05-07T10:12:00.596Z,63702.37
2023-05-07T10:13:02.929Z,63723.57
2023-05-07T10:14:05.836Z,63737.52
2023-05-07T10:15:09.714Z,63749.60
2023-05-07T10:16:13.406Z,63750.02
2023-05-07T10:17:17.232Z,63733.66
2023-05-07T10:18:22.096Z,63767.48
2023-05-07T10:19:26.249Z,63754.96
2023-05-07T10:20:28.926Z,63743.55
2023-05-07T10:21:32.605Z,63767.71
2023-05-07T10:22:46.265Z,63760.03
2023-05-07T10:23:57.993Z,63763.87
2023-05-07T10:25:02.937Z,63752.77
2023-05-07T10:26:08.625Z,63751.25
2023-05-07T10:27:13.010Z,63754.42
2023-05-07T10:28:18.518Z,63735.87
2023-05-07T10:30:58.955Z,63780.38
2023-05-07T10:32:10.261Z,63764.31
2023-05-07T10:33:15.702Z,63763.21
2023-05-07T10:34:21.522Z,63753.76
2023-05-07T10:35:26.686Z,63762.54
2023-05-07T10:36:29.910Z,63753.98
2023-05-07T10:37:32.397Z,63764.31
2023-05-07T10:38:34.518Z,63764.31
2023-05-07T10:39:36.892Z,63766.06
2023-05-07T10:40:40.206Z,63745.20
2023-05-07T10:41:42.371Z,63748.49
2023-05-07T10:42:57.127Z,63748.49
2023-05-07T10:44:00.492Z,63765.84
2023-05-07T10:45:16.557Z,63766.06
2023-05-07T10:46:21.083Z,63766.50
2023-05-07T10:47:23.193Z,63776.64
2023-05-07T10:48:30.213Z,63779.49
2023-05-07T10:49:28.873Z,63748.05
2023-05-07T10:50:30.945Z,63765.52
2023-05-07T10:51:33.880Z,63774.89
2023-05-07T10:52:36.022Z,63786.97
2023-05-07T10:53:37.879Z,63778.61
2023-05-07T10:54:39.732Z,63789.71
2023-05-07T10:55:41.624Z,63794.65
2023-05-07T10:56:44.044Z,63786.73
2023-05-07T10:57:45.952Z,63789.61
2023-05-07T10:58:47.813Z,63791.36
2023-05-07T10:59:49.752Z,63793.55
2023-05-07T11:01:00.755Z,63798.39
2023-05-07T11:02:03.687Z,63793.13
2023-05-07T11:03:06.185Z,63807.85
2023-05-07T11:04:16.252Z,63795.64
2023-05-07T11:05:22.422Z,63807.95
2023-05-07T11:06:24.665Z,63800.14
2023-05-07T11:07:28.604Z,63797.29
2023-05-07T11:08:53.013Z,63811.57
2023-05-07T11:09:57.389Z,63807.28
2023-05-07T11:11:00.078Z,63822.13
2023-05-07T11:12:02.226Z,63814.76
2023-05-07T11:13:04.154Z,63803.44
2023-05-07T11:14:06.278Z,63794.88
2023-05-07T11:15:11.567Z,63795.52
2023-05-07T11:16:24.578Z,63809.50
2023-05-07T11:17:26.552Z,63812.67
2023-05-07T11:18:32.307Z,63799.48
2023-05-07T11:19:56.386Z,63794.53
2023-05-07T11:20:59.695Z,63778.73
2023-05-07T11:22:02.240Z,63799.06
2023-05-07T11:23:04.260Z,63799.06
2023-05-07T11:24:08.051Z,63818.06
2023-05-07T11:25:10.971Z,63819.37
2023-05-07T11:26:14.211Z,63802.90
2023-05-07T11:27:19.859Z,63812.23
2023-05-07T11:28:24.509Z,63829.83
2023-05-07T11:29:27.255Z,63829.58
2023-05-07T11:30:29.468Z,63833.55
2023-05-07T11:31:31.702Z,63826.41
2023-05-07T11:32:33.857Z,63814.32
2023-05-07T11:33:36.718Z,63804.99
2023-05-07T11:34:39.692Z,63802.36
2023-05-07T11:35:43.671Z,63786.54
2023-05-07T11:36:45.937Z,63801.79
2023-05-07T11:37:49.119Z,63807.06
2023-05-07T11:38:51.236Z,63808.27
2023-05-07T11:40:05.164Z,63803.98
2023-05-07T11:41:08.392Z,63787.52
2023-05-07T11:42:29.594Z,63803.22
2023-05-07T11:43:32.911Z,63800.71
2023-05-07T11:44:45.150Z,63803.98
2023-05-07T11:45:47.681Z,63819.71
2023-05-07T11:46:50.081Z,63804.99
2023-05-07T11:47:52.079Z,63795.20
2023-05-07T11:48:54.674Z,63800.14
2023-05-07T11:49:57.229Z,63770.91
2023-05-07T11:51:02.006Z,63798.93
2023-05-07T11:52:06.583Z,63803.44
2023-05-07T11:53:08.621Z,63800.14
2023-05-07T11:54:10.489Z,63784.09
2023-05-07T11:55:13.000Z,63789.04
2023-05-07T11:56:17.040Z,63809.60
2023-05-07T11:57:19.997Z,63808.93
2023-05-07T11:58:23.854Z,63816.51
2023-05-07T11:59:25.833Z,63821.02
2023-05-07T12:00:27.883Z,63819.81
2023-05-07T12:01:29.876Z,63809.81
2023-05-07T12:02:31.872Z,63820.25
2023-05-07T12:03:36.743Z,63814.44
2023-05-07T12:04:38.995Z,63810.58
2023-05-07T12:05:41.037Z,63808.93
2023-05-07T12:06:43.112Z,63810.04
2023-05-07T12:07:44.965Z,63820.04
2023-05-07T12:08:48.367Z,63824.32
2023-05-07T12:09:50.737Z,63813.88
2023-05-07T12:10:52.809Z,63812.79
2023-05-07T12:11:54.683Z,63816.09
2023-05-07T12:12:56.593Z,63818.39
2023-05-07T12:13:59.412Z,63810.25
2023-05-07T12:15:01.927Z,63796.85
2023-05-07T12:16:05.816Z,63798.39
2023-05-07T12:17:09.794Z,63794.53
2023-05-07T12:18:13.659Z,63790.02
2023-05-07T12:19:17.646Z,63793.45
2023-05-07T12:20:20.213Z,63780.15